Tiempo atmosférico en la estación meteorológica de Cenicero, La Rioja (429 m.)



Fecha
DESCASC
Temp. máxima en grados centígrados (hora)
DESCASC
Temp. mínima en grados centígrados (hora)
DESCASC
Temp. media en grados centígrados
DESCASC
Racha de viento máxima en m/sg (hora)
DESCASC
Velocidad máxima media en intervalos de 10 minutos(hora)
DESCASC
Precipitaciones diarias en mm
DESCASC
Precipitaciones de 00:00 a 06:00 en mm
DESCASC
Precipitaciones de 06:00 a 12:00 en mm
DESCASC
Precipitaciones de 12:00 a 18:00 en mm
DESCASC
Precipitaciones de 18:00 a 24:00 en mm
DESCASC
22-01-2020 8.1 (16:00) 2.5 (05:30) 5.3 6.39 (00:20) 3.06 (00:10) 0.6 0.6 0 0 0
21-01-2020 2.7 (12:00) 0.6 (01:10) 1.7 8.89 (18:20) 5.28 (17:20) 8 0 1.2 6.8 0
20-01-2020 4.2 (14:00) -0.2 (08:20) 2 7.22 (00:20) 3.33 (00:10) 0 0 0 0 0
19-01-2020 6.8 (13:40) 2.2 (00:00) 4.5 13.89 (14:50) 6.67 (14:00) 3.4 3.4 0 0 0
18-01-2020 9.6 (16:40) 1.1 (00:00) 5.4 10.28 (19:00) 6.39 (19:00) 12.4 0 0 0.4 12
17-01-2020 12.4 (14:40) 2.4 (00:00) 7.4 12.5 (14:00) 6.94 (14:30) 0 0 0 0 0
16-01-2020 9.9 (16:40) 1.2 (00:00) 5.5 6.11 (10:50) 2.78 (10:50) 0 0 0 0 0
15-01-2020 7.8 (16:30) -0.5 (-00:0) 3.7 7.5 (04:40) 3.06 (11:30) 0 0 0 0 0
14-01-2020 1.7 (14:50) -1.5 (-00:0) 0.1 6.11 (23:20) 3.33 (23:20) 0 0 0 0 0
13-01-2020 6.1 (14:50) -2 (-00:0) 2 3.89 (16:30) 2.5 (16:30) 0 0 0 0 0
12-01-2020 11.8 (16:40) 0.6 (00:00) 6.2 7.78 (01:50) 4.44 (11:30) 0 0 0 0 0
11-01-2020 10.3 (16:40) 0.8 (00:00) 5.6 6.11 (19:40) 3.89 (16:20) 0 0 0 0 0
10-01-2020 8.1 (15:50) 3.5 (00:00) 5.8 8.33 (14:10) 4.17 (13:20) 1.6 1.6 0 0 0
09-01-2020 4.3 (14:40) 2.6 (00:00) 3.5 6.67 (15:50) 3.89 (16:00) 3.4 0 0 0 3.4
08-01-2020 13.8 (15:00) 2.6 (00:00) 8.2 6.94 (15:20) 4.17 (15:20) 0 0 0 0 0
07-01-2020 13.7 (16:40) 0.4 (00:00) 7 6.39 (07:50) 3.61 (07:40) 0 0 0 0 0
06-01-2020 8 (16:40) -2.4 (-00:0) 2.8 2.22 (15:50) 1.39 (17:00) 0 0 0 0 0
05-01-2020 13 (16:40) 1.7 (00:00) 7.4 7.22 (04:50) 4.44 (04:50) 0 0 0 0 0
04-01-2020 10.4 (14:50) 4.9 (00:00) 7.6 7.22 (21:20) 4.44 (11:10) 0 0 0 0 0
03-01-2020 8.4 (16:40) -1.4 (-00:0) 3.5 8.06 (13:30) 4.72 (13:30) 0 0 0 0 0
02-01-2020 -0.2 (16:50) -1.7 (-00:0) -1 4.44 (22:40) 2.5 (15:30) 0 0 0 0 0
01-01-2020 2.1 (14:40) -2.6 (-00:0) -0.3 3.89 (16:20) 2.22 (16:40) 0 0 0 0 0
31-12-2019 0.7 (15:40) -1.3 (-00:0) -0.3 4.17 (23:30) 2.5 (23:59) 0 0 0 0 0
30-12-2019 -- (--) -- (--) -- -- (--) -- (--) -- 0 0 0 --
29-12-2019 2.7 (00:00) -2.2 (-00:0) 0.3 3.61 (15:40) 1.94 (15:40) 0 0 0 0 0
28-12-2019 13.4 (16:20) -1.2 (-00:0) 6.1 4.72 (04:50) 3.06 (04:20) 0 0 0 0 0
27-12-2019 9.5 (16:40) 0.5 (00:00) 5 5.56 (10:00) 3.61 (09:30) 0 0 0 0 0

Gráficas

Temp. máximas Temp. mínimas Temp. medias Precipitaciones Rachas de viento máximas Velocidades máximas media en intervalos de 10 minutos

Datos horarios

Fecha y hora oficial Temperatura (ºC) Velocidad del viento (km/h) Dirección del viento Racha (km/h) Dirección de racha Precipitación (mm) Presión (hPa) Tendencia (hPa) Humedad (%)
2020-01-25 23:00:00 7 2 Sudoeste 4 Sudoeste 0.2 -- -- 97
2020-01-25 22:00:00 7.4 0 Calma 4 Sur 0 -- -- 97
2020-01-25 21:00:00 7.5 0 Calma 6 Sudeste 0.6 -- -- 96
2020-01-25 20:00:00 7.7 4 Sudeste 12 Este 0.6 -- -- 95
2020-01-25 19:00:00 7.7 5 Este 17 Este 0 -- -- 94
2020-01-25 18:00:00 7.9 7 Este 22 Este 0 -- -- 93
2020-01-25 17:00:00 7.9 10 Este 24 Este 0 -- -- 92
2020-01-25 16:00:00 7.7 12 Este 28 Este 0 -- -- 93
2020-01-25 15:00:00 7.4 16 Este 27 Este 0 -- -- 95
2020-01-25 14:00:00 7.1 15 Este 30 Este 0 -- -- 96
2020-01-25 13:00:00 6.8 10 Este 18 Este 0.4 -- -- 97
2020-01-25 12:00:00 6.3 11 Este 21 Este 1.4 -- -- 96
2020-01-25 11:00:00 6.3 13 Este 22 Este 0.2 -- -- 96
2020-01-25 10:00:00 5.9 6 Este 15 Este 0 -- -- 96
2020-01-25 09:00:00 5.7 3 Este 11 Este 0 -- -- 95
2020-01-25 08:00:00 5.7 4 Sudeste 11 Este 0 -- -- 95
2020-01-25 07:00:00 5.9 5 Este 16 Este 0 -- -- 94
2020-01-25 06:00:00 6.1 8 Sudeste 16 Sudeste 0 -- -- 93
2020-01-25 05:00:00 6.1 6 Este 14 Sudeste 0 -- -- 94
2020-01-25 04:00:00 6.3 5 Este 13 Este 0 -- -- 93
2020-01-25 03:00:00 6.1 3 Este 8 Sudeste 0 -- -- 94
2020-01-25 02:00:00 5.9 0 Calma 4 Este 0 -- -- 93
2020-01-25 01:00:00 6 0 Calma 3 Oeste 0 -- -- 92
2020-01-25 00:00:00 6 0 Calma 2 Sudoeste 0 -- -- 91
2020-01-24 23:00:00 6.1 0 Calma 6 Sudoeste 0 -- -- 90
2020-01-24 22:00:00 6.3 4 Sudoeste 9 Sur 0 -- -- 89
2020-01-24 21:00:00 6.4 0 Calma 5 Sudoeste 0 -- -- 89
2020-01-24 20:00:00 6.6 0 Calma 8 Sudoeste 0 -- -- 88
2020-01-24 19:00:00 6.9 0 Calma 6 Oeste 0 -- -- 89
2020-01-24 18:00:00 7.4 0 Calma 5 Noroeste 0 -- -- 89
2020-01-24 17:00:00 7.6 0 Calma 6 Sudeste 0 -- -- 88
2020-01-24 16:00:00 7.4 2 Sudeste 6 Sur 0 -- -- 88
2020-01-24 15:00:00 6.9 3 Este 10 Este 0 -- -- 91
2020-01-24 14:00:00 6.7 4 Sudeste 12 Este 0 -- -- 90
2020-01-24 13:00:00 6.3 4 Sur 9 Sur 0 -- -- 93
2020-01-24 12:00:00 5.7 3 Sur 15 Este 0 -- -- 94
2020-01-24 11:00:00 5.3 5 Este 20 Este 0 -- -- 95
2020-01-24 10:00:00 5 8 Sudeste 17 Sudeste 0 -- -- 96
2020-01-24 09:00:00 4.8 8 Este 18 Este 0 -- -- 96
2020-01-24 08:00:00 4.8 8 Este 17 Este 0 -- -- 95
2020-01-24 07:00:00 4.9 4 Sudeste 19 Este 0 -- -- 94
2020-01-24 06:00:00 5.3 10 Este 20 Este 0 -- -- 94
2020-01-24 05:00:00 5.4 9 Este 24 Este 0 -- -- 94
2020-01-24 04:00:00 5.7 5 Sudeste 24 Este 0 -- -- 93
2020-01-24 03:00:00 5.6 7 Este 30 Este 0 -- -- 94
2020-01-24 02:00:00 5.7 12 Este 30 Este 0 -- -- 94
2020-01-24 01:00:00 5.7 16 Este 31 Este 0 -- -- 94
2020-01-24 00:00:00 5.9 17 Este 33 Este 0 -- -- 94
2020-01-23 23:00:00 6.1 18 Este 33 Este 0 -- -- 94
2020-01-23 22:00:00 6.2 16 Este 30 Este 0 -- -- 93
2020-01-23 21:00:00 6.3 13 Este 33 Este 0 -- -- 92
2020-01-23 20:00:00 6.8 17 Este 32 Este 0 -- -- 90
2020-01-23 19:00:00 7.4 13 Este 24 Este 0 -- -- 88
2020-01-23 18:00:00 7 6 Este 21 Este 0 -- -- 88
2020-01-23 17:00:00 7 9 Este 22 Este 0 -- -- 86
2020-01-23 16:00:00 7.2 12 Este 21 Este 0 -- -- 84
2020-01-23 15:00:00 7 4 Este 13 Este 0 -- -- 83
2020-01-23 14:00:00 6.4 3 Nordeste 7 Noroeste 0 -- -- 85
2020-01-23 13:00:00 6.2 3 Oeste 8 Oeste 0 -- -- 87
2020-01-23 12:00:00 5.8 2 Oeste 6 Oeste 0 -- -- 87
2020-01-23 11:00:00 4.6 4 Oeste 7 Oeste 0 -- -- 93
2020-01-23 10:00:00 3.5 2 Noroeste 7 Noroeste 0 -- -- 95
2020-01-23 09:00:00 3 3 Noroeste 5 Oeste 0 -- -- 97
2020-01-23 08:00:00 2.9 2 Noroeste 6 Oeste 0 -- -- 98
2020-01-23 07:00:00 2.7 0 Calma 8 Sudoeste 0 -- -- 98
2020-01-23 06:00:00 2.4 0 Calma 4 Oeste 0 -- -- 98
2020-01-23 05:00:00 2.1 3 Oeste 4 Oeste 0 -- -- 98
2020-01-23 04:00:00 1.8 2 Sudoeste 8 Sudoeste 0 -- -- 97
2020-01-23 03:00:00 2.2 3 Sudeste 6 Sudoeste 0 -- -- 96
2020-01-23 02:00:00 2.8 0 Calma 5 Sudoeste 0 -- -- 94
2020-01-23 01:00:00 3.6 0 Calma 5 Sur 0 -- -- 93
2020-01-23 00:00:00 3.8 0 Calma 4 Oeste 0 -- -- 92
2020-01-22 23:00:00 4 0 Calma 4 Este 0 -- -- 93
2020-01-22 22:00:00 4.2 2 Este 5 Sur 0 -- -- 92
2020-01-22 21:00:00 4.7 2 Nordeste 4 Oeste 0 -- -- 90
2020-01-22 20:00:00 5.4 3 Sudoeste 12 Sur 0 -- -- 88
2020-01-22 19:00:00 6 2 Sur 10 Sudoeste 0 -- -- 85
2020-01-22 18:00:00 7 5 Sudoeste 14 Sudoeste 0 -- -- 82
2020-01-22 17:00:00 7.9 5 Sudoeste 11 Sudoeste 0 -- -- 81
2020-01-22 16:00:00 8.1 5 Oeste 13 Sudoeste 0 -- -- 80
2020-01-22 15:00:00 7.8 7 Sudoeste 17 Sudoeste 0 -- -- 82
2020-01-22 14:00:00 7.5 7 Oeste 14 Oeste 0 -- -- 83
2020-01-22 13:00:00 6.6 6 Sudoeste 14 Sudoeste 0 -- -- 85
2020-01-22 12:00:00 5.1 3 Oeste 9 Sudoeste 0 -- -- 92
2020-01-22 11:00:00 4.1 3 Sudoeste 6 Sudoeste 0 -- -- 96
2020-01-22 10:00:00 3 2 Noroeste 5 Oeste 0 -- -- 97
2020-01-22 09:00:00 2.6 0 Calma 4 Noroeste 0 -- -- 97
2020-01-22 08:00:00 2.5 0 Calma 3 Oeste 0 -- -- 97
2020-01-22 07:00:00 2.5 0 Calma 5 Sudoeste 0 -- -- 97
2020-01-22 06:00:00 2.5 2 Norte 6 Noroeste 0.2 -- -- 96
2020-01-22 05:00:00 2.6 0 Calma 4 Noroeste 0 -- -- 95
2020-01-22 04:00:00 3.1 2 Sudoeste 6 Sur 0.4 -- -- 94
2020-01-22 03:00:00 3.3 5 Sur 21 Sudoeste 0 -- -- 93
2020-01-22 02:00:00 3 8 Sudoeste 22 Sur 0 -- -- 92
2020-01-22 01:00:00 2.7 11 Sudoeste 23 Sudoeste 0 -- -- 92
2020-01-22 00:00:00 2.6 12 Sudoeste 22 Sudoeste 0 -- -- 91
2020-01-21 23:00:00 2.5 12 Sudoeste 22 Sudoeste 0 -- -- 92
2020-01-21 22:00:00 2.2 12 Sudoeste 24 Sudoeste 0 -- -- 93
2020-01-21 21:00:00 2 13 Sudoeste 27 Sudoeste 0 -- -- 93
2020-01-21 20:00:00 1.7 10 Sudoeste 27 Sudoeste 0 -- -- 94
2020-01-21 19:00:00 1.8 14 Sudoeste 32 Sudoeste 0 -- -- 95
2020-01-21 18:00:00 1.6 15 Sudoeste 31 Sur 0 -- -- 96
2020-01-21 17:00:00 1.4 18 Sudoeste 31 Sudoeste 0.4 -- -- 97
2020-01-21 16:00:00 1.2 12 Sudoeste 27 Sudoeste 1.2 -- -- 96
2020-01-21 15:00:00 1 11 Sudoeste 26 Sudoeste 3 -- -- 96
2020-01-21 14:00:00 1.5 13 Sudoeste 23 Sudoeste 0.8 -- -- 94
2020-01-21 13:00:00 2.4 7 Sudoeste 22 Sudoeste 1.4 -- -- 94
2020-01-21 12:00:00 2.7 10 Sudoeste 24 Sudoeste 0.4 -- -- 92
2020-01-21 11:00:00 2.5 12 Sudoeste 23 Sudoeste 0.2 -- -- 92
2020-01-21 10:00:00 2 8 Sudoeste 24 Sudoeste 0.6 -- -- 90
2020-01-21 09:00:00 2.6 7 Sur 21 Sudoeste 0 -- -- 81
2020-01-21 08:00:00 2.3 11 Sudoeste 25 Sudoeste 0 -- -- 81
2020-01-21 07:00:00 2.1 12 Sudoeste 24 Sudoeste 0 -- -- 80
2020-01-21 06:00:00 2.1 14 Sudoeste 25 Sudoeste 0 -- -- 77
2020-01-21 05:00:00 1.9 11 Oeste 20 Oeste 0 -- -- 75
2020-01-21 04:00:00 1.5 5 Oeste 17 Sudoeste 0 -- -- 77
2020-01-21 03:00:00 1.3 9 Sudoeste 17 Sudoeste 0 -- -- 80
2020-01-21 02:00:00 1.2 6 Sudoeste 13 Sudoeste 0 -- -- 78
2020-01-21 01:00:00 0.7 4 Oeste 14 Sudoeste 0 -- -- 83
2020-01-21 00:00:00 0.8 9 Sudoeste 16 Oeste 0 -- -- 84
2020-01-20 23:00:00 0.5 9 Sudoeste 15 Sudoeste 0 -- -- 84
2020-01-20 22:00:00 0.5 7 Sudoeste 14 Sudoeste 0 -- -- 81
2020-01-20 21:00:00 0.5 4 Sudoeste 9 Sudoeste 0 -- -- 79
2020-01-20 20:00:00 1.2 4 Sudoeste 10 Oeste 0 -- -- 74
2020-01-20 19:00:00 2 5 Oeste 11 Oeste 0 -- -- 69
2020-01-20 18:00:00 2.9 5 Norte 12 Oeste 0 -- -- 62
2020-01-20 17:00:00 3.5 4 Sudoeste 13 Oeste 0 -- -- 61
2020-01-20 16:00:00 3.6 5 Noroeste 20 Noroeste 0 -- -- 56
2020-01-20 15:00:00 3.5 7 Noroeste 16 Noroeste 0 -- -- 58
2020-01-20 14:00:00 4.2 7 Oeste 15 Noroeste 0 -- -- 57
2020-01-20 13:00:00 3.6 6 Noroeste 15 Oeste 0 -- -- 58
2020-01-20 12:00:00 2.4 6 Oeste 14 Oeste 0 -- -- 63
2020-01-20 11:00:00 1.6 10 Oeste 18 Oeste 0 -- -- 67
2020-01-20 10:00:00 0.5 7 Oeste 17 Oeste 0 -- -- 70
2020-01-20 09:00:00 0.2 10 Oeste 18 Noroeste 0 -- -- 72
2020-01-20 08:00:00 0.2 5 Sudoeste 21 Noroeste 0 -- -- 72
2020-01-20 07:00:00 1.1 11 Noroeste 20 Noroeste 0 -- -- 66
2020-01-20 06:00:00 0.6 5 Noroeste 13 Norte 0 -- -- 69
2020-01-20 05:00:00 1.7 8 Noroeste 24 Norte 0 -- -- 64
2020-01-20 04:00:00 1.8 12 Noroeste 22 Oeste 0 -- -- 63
2020-01-20 03:00:00 1.6 2 Sudoeste 14 Oeste 0 -- -- 65
2020-01-20 02:00:00 2.4 6 Nordeste 23 Oeste 0 -- -- 60
2020-01-20 01:00:00 2.7 12 Norte 26 Norte 0 -- -- 61
2020-01-20 00:00:00 2.2 4 Oeste 17 Norte 0 -- -- 63
2020-01-19 23:00:00 2.8 3 Noroeste 16 Norte 0 -- -- 62
2020-01-19 22:00:00 3.3 3 Noroeste 19 Noroeste 0 -- -- 59
2020-01-19 21:00:00 4 5 Norte 28 Norte 0 -- -- 58
2020-01-19 20:00:00 4.5 14 Norte 39 Norte 0 -- -- 57
2020-01-19 19:00:00 4.8 22 Noroeste 40 Norte 0 -- -- 58
2020-01-19 18:00:00 5.1 11 Noroeste 30 Norte 0 -- -- 58
2020-01-19 17:00:00 6.1 13 Noroeste 38 Oeste 0 -- -- 55
2020-01-19 16:00:00 6.6 17 Noroeste 45 Noroeste 0 -- -- 53
2020-01-19 15:00:00 6.6 23 Norte 50 Noroeste 0 -- -- 54
2020-01-19 14:00:00 6.5 24 Norte 43 Noroeste 0 -- -- 58
2020-01-19 13:00:00 6.3 14 Noroeste 39 Noroeste 0 -- -- 65
2020-01-19 12:00:00 5.6 20 Noroeste 36 Noroeste 0 -- -- 70
2020-01-19 11:00:00 5.9 13 Noroeste 28 Norte 0 -- -- 69
2020-01-19 10:00:00 6 11 Noroeste 31 Norte 0 -- -- 70
2020-01-19 09:00:00 6 12 Noroeste 30 Noroeste 0 -- -- 70
2020-01-19 08:00:00 6.3 16 Norte 34 Norte 0 -- -- 74
2020-01-19 07:00:00 5.7 6 Norte 20 Norte 0 -- -- 95
2020-01-19 06:00:00 5.2 8 Oeste 18 Oeste 0.2 -- -- 97
2020-01-19 05:00:00 4.6 3 Oeste 9 Noroeste 0.4 -- -- 96
2020-01-19 04:00:00 4.5 8 Oeste 19 Oeste 0.6 -- -- 96
2020-01-19 03:00:00 4.3 5 Oeste 12 Oeste 1.6 -- -- 96
2020-01-19 02:00:00 4.3 5 Oeste 9 Oeste 0.6 -- -- 95
2020-01-19 01:00:00 4.4 4 Oeste 11 Oeste 0 -- -- 94
2020-01-19 00:00:00 4.3 6 Oeste 18 Sudoeste 0 -- -- 94
2020-01-18 23:00:00 4.7 8 Sudoeste 23 Sudoeste 0 -- -- 94
2020-01-18 22:00:00 5.1 13 Sudoeste 25 Oeste 1.4 -- -- 92
2020-01-18 21:00:00 5.2 6 Oeste 22 Oeste 4.2 -- -- 91
2020-01-18 20:00:00 6.3 14 Noroeste 30 Este 4.8 -- -- 89
2020-01-18 19:00:00 7.3 23 Este 37 Este 1.6 -- -- 90
2020-01-18 18:00:00 8.3 10 Este 22 Este 0.4 -- -- 84
2020-01-18 17:00:00 9.6 10 Este 23 Este 0 -- -- 73
2020-01-18 16:00:00 8.9 12 Este 26 Sudeste 0 -- -- 74
2020-01-18 15:00:00 7.2 15 Este 28 Este 0 -- -- 78
2020-01-18 14:00:00 6 13 Este 26 Este 0 -- -- 82
2020-01-18 13:00:00 5.4 13 Este 25 Este 0 -- -- 84
2020-01-18 12:00:00 5 11 Este 26 Este 0 -- -- 83
2020-01-18 11:00:00 4.9 12 Este 23 Este 0 -- -- 83
2020-01-18 10:00:00 3.6 8 Sudeste 15 Este 0 -- -- 89
2020-01-18 09:00:00 2.5 5 Este 9 Este 0 -- -- 92
2020-01-18 08:00:00 2.8 7 Este 12 Este 0 -- -- 91
2020-01-18 07:00:00 2.4 4 Este 8 Sudeste 0 -- -- 93
2020-01-18 06:00:00 1.5 3 Sur 8 Sur 0 -- -- 94
2020-01-18 05:00:00 1.3 0 Calma 3 Oeste 0 -- -- 96
2020-01-18 04:00:00 1.1 0 Calma 4 Oeste 0 -- -- 96
2020-01-18 03:00:00 1.2 0 Calma 4 Sudoeste 0 -- -- 96
2020-01-18 02:00:00 1.2 0 Calma 3 Sudeste 0 -- -- 94
2020-01-18 01:00:00 1.3 2 Sudoeste 3 Sudoeste 0 -- -- 92
2020-01-18 00:00:00 2.4 0 Calma 3 Sudeste 0 -- -- 91
2020-01-17 23:00:00 3.2 0 Calma 5 Sudoeste 0 -- -- 89
2020-01-17 22:00:00 4.3 0 Calma 5 Sudoeste 0 -- -- 86
2020-01-17 21:00:00 5.4 2 Noroeste 5 Sudoeste 0 -- -- 81
2020-01-17 20:00:00 6.5 2 Sur 7 Oeste 0 -- -- 77
2020-01-17 19:00:00 7.9 4 Noroeste 9 Oeste 0 -- -- 72
2020-01-17 18:00:00 9.3 5 Noroeste 19 Oeste 0 -- -- 66
2020-01-17 17:00:00 10.3 3 Noroeste 20 Noroeste 0 -- -- 64
2020-01-17 16:00:00 11.9 13 Noroeste 27 Oeste 0 -- -- 55
2020-01-17 15:00:00 11.8 12 Noroeste 41 Noroeste 0 -- -- 56
2020-01-17 14:00:00 11.4 24 Oeste 45 Oeste 0 -- -- 54
2020-01-17 13:00:00 12 18 Noroeste 37 Oeste 0 -- -- 60
2020-01-17 12:00:00 11.7 20 Oeste 36 Oeste 0 -- -- 62
2020-01-17 11:00:00 9.4 13 Oeste 24 Oeste 0 -- -- 77
2020-01-17 10:00:00 5.4 5 Oeste 19 Oeste 0 -- -- 97
2020-01-17 09:00:00 4.6 0 Calma 4 Sudeste 0 -- -- 94
2020-01-17 08:00:00 4.5 2 Oeste 6 Sudeste 0 -- -- 93
2020-01-17 07:00:00 4.6 2 Sur 7 Este 0 -- -- 92
2020-01-17 06:00:00 4.5 0 Calma 7 Sudoeste 0 -- -- 91
2020-01-17 05:00:00 5.1 2 Sudeste 10 Este 0 -- -- 91
2020-01-17 04:00:00 6 3 Este 14 Sudoeste 0 -- -- 87
2020-01-17 03:00:00 6.9 4 Sur 13 Este 0 -- -- 85
2020-01-17 02:00:00 7.1 5 Nordeste 16 Sudeste 0 -- -- 86
2020-01-17 01:00:00 6.5 2 Sudeste 9 Oeste 0 -- -- 91
2020-01-17 00:00:00 6.4 2 Nordeste 6 Oeste 0 -- -- 92
2020-01-16 23:00:00 6.6 3 Sudoeste 8 Sudoeste 0 -- -- 91
2020-01-16 22:00:00 6.7 4 Este 9 Este 0 -- -- 91
2020-01-16 21:00:00 6.8 0 Calma 16 Este 0 -- -- 89
2020-01-16 20:00:00 6.9 2 Norte 10 Sudeste 0 -- -- 87
2020-01-16 19:00:00 8 3 Sur 9 Sudeste 0 -- -- 86
2020-01-16 18:00:00 8.9 4 Este 11 Este 0 -- -- 81
2020-01-16 17:00:00 9.7 3 Noroeste 13 Sudeste 0 -- -- 80
2020-01-16 16:00:00 9.4 4 Sudeste 12 Sudeste 0 -- -- 82
2020-01-16 15:00:00 8 7 Este 21 Este 0 -- -- 85
2020-01-16 14:00:00 6.5 8 Este 18 Este 0 -- -- 91
2020-01-16 13:00:00 4.9 9 Este 20 Este 0 -- -- 94
2020-01-16 12:00:00 4 10 Este 20 Sudeste 0 -- -- 97
2020-01-16 11:00:00 3.3 9 Sudeste 22 Sudeste 0 -- -- 97
2020-01-16 10:00:00 3.1 8 Sudeste 19 Este 0 -- -- 98
2020-01-16 09:00:00 2.4 5 Este 16 Este 0 -- -- 98
2020-01-16 08:00:00 2.4 5 Este 15 Este 0 -- -- 100
2020-01-16 07:00:00 1.4 4 Nordeste 10 Nordeste 0 -- -- 98
2020-01-16 06:00:00 1.5 4 Nordeste 13 Este 0 -- -- 98
2020-01-16 05:00:00 1.4 3 Norte 7 Nordeste 0 -- -- 98
2020-01-16 04:00:00 1.5 2 Noroeste 8 Este 0 -- -- 97
2020-01-16 03:00:00 1.7 2 Este 7 Nordeste 0 -- -- 97
2020-01-16 02:00:00 1.9 3 Nordeste 5 Sudeste 0 -- -- 96
2020-01-16 01:00:00 2.3 3 Sudeste 9 Este 0 -- -- 95
2020-01-16 00:00:00 3.1 7 Este 12 Este 0 -- -- 94
2020-01-15 23:00:00 2.8 0 Calma 4 Este 0 -- -- 93
2020-01-15 22:00:00 4.3 3 Este 10 Sudeste 0 -- -- 92
2020-01-15 21:00:00 4.2 2 Nordeste 8 Este 0 -- -- 91
2020-01-15 20:00:00 5.2 0 Calma 12 Nordeste 0 -- -- 87
2020-01-15 19:00:00 6 3 Norte 11 Nordeste 0 -- -- 85
2020-01-15 18:00:00 7.3 4 Nordeste 11 Nordeste 0 -- -- 81
2020-01-15 17:00:00 7.8 4 Este 14 Este 0 -- -- 78
2020-01-15 16:00:00 7.2 4 Este 11 Sudeste 0 -- -- 79
2020-01-15 15:00:00 6.7 4 Este 15 Sudeste 0 -- -- 81
2020-01-15 14:00:00 6.2 8 Este 18 Este 0 -- -- 80
2020-01-15 13:00:00 4.6 10 Este 19 Este 0 -- -- 84
2020-01-15 12:00:00 3.6 9 Este 21 Sudeste 0 -- -- 87
2020-01-15 11:00:00 2.9 8 Este 20 Este 0 -- -- 89
2020-01-15 10:00:00 2.9 10 Este 20 Este 0 -- -- 88
2020-01-15 09:00:00 2.3 6 Este 18 Este 0 -- -- 91
2020-01-15 08:00:00 1.4 5 Este 14 Nordeste 0 -- -- 93
2020-01-15 07:00:00 0.3 7 Norte 14 Nordeste 0 -- -- 95
2020-01-15 06:00:00 0.3 5 Nordeste 13 Nordeste 0 -- -- 94
2020-01-15 05:00:00 1.7 5 Nordeste 27 Este 0 -- -- 92
2020-01-15 04:00:00 0.6 7 Este 14 Este 0 -- -- 97
2020-01-15 03:00:00 0.2 8 Este 18 Este 0 -- -- 98
2020-01-15 02:00:00 -0.2 5 Nordeste 17 Este 0 -- -- 99
2020-01-15 01:00:00 -0.5 8 Sudeste 18 Este 0 -- -- 98
2020-01-15 00:00:00 0 9 Este 22 Este 0 -- -- 97
2020-01-14 23:00:00 0.3 11 Este 18 Este 0 -- -- 98
2020-01-14 22:00:00 0 7 Este 17 Este 0 -- -- 98
2020-01-14 21:00:00 -0.2 7 Este 15 Este 0 -- -- 98
2020-01-14 20:00:00 0.1 9 Este 22 Este 0 -- -- 98
2020-01-14 19:00:00 -0.1 9 Este 20 Este 0 -- -- 97
2020-01-14 18:00:00 0.1 11 Este 18 Sudeste 0 -- -- 96
2020-01-14 17:00:00 1 6 Este 19 Este 0 -- -- 93
2020-01-14 16:00:00 1.7 5 Este 15 Este 0 -- -- 95
2020-01-14 15:00:00 1.5 10 Este 19 Este 0 -- -- 96
2020-01-14 14:00:00 1.2 7 Este 15 Este 0 -- -- 99
2020-01-14 13:00:00 0.9 6 Este 15 Nordeste 0 -- -- 100
2020-01-14 12:00:00 -0.1 5 Este 13 Este 0 -- -- 100
2020-01-14 11:00:00 -1.1 6 Este 13 Nordeste 0 -- -- 100
2020-01-14 10:00:00 -1.1 3 Este 10 Este 0 -- -- 100
2020-01-14 09:00:00 -1.2 2 Nordeste 6 Nordeste 0 -- -- 100
2020-01-14 08:00:00 -1.4 0 Calma 8 Este 0 -- -- 100
2020-01-14 07:00:00 -1.1 3 Este 9 Este 0 -- -- 100
2020-01-14 06:00:00 -1.1 2 Sudeste 4 Sudeste 0 -- -- 99
2020-01-14 05:00:00 -1.1 2 Nordeste 4 Sudeste 0 -- -- 99
2020-01-14 04:00:00 -1.1 0 Calma 8 Este 0 -- -- 99
2020-01-14 03:00:00 -1.1 3 Nordeste 7 Este 0 -- -- 98
2020-01-14 02:00:00 -1 3 Sudeste 6 Sur 0 -- -- 98
2020-01-14 01:00:00 -1.4 0 Calma 6 Este 0 -- -- 97
2020-01-14 00:00:00 -0.8 0 Calma 3 Sur 0 -- -- 96
2020-01-13 23:00:00 -0.2 2 Sur 4 Sudoeste 0 -- -- 95
2020-01-13 22:00:00 0.2 0 Calma 5 Sudoeste 0 -- -- 93
2020-01-13 21:00:00 1.4 0 Calma 9 Nordeste 0 -- -- 92
2020-01-13 20:00:00 2.3 4 Nordeste 9 Nordeste 0 -- -- 90
2020-01-13 19:00:00 3.4 4 Este 13 Este 0 -- -- 86
2020-01-13 18:00:00 4.9 3 Este 13 Este 0 -- -- 79
2020-01-13 17:00:00 5.7 7 Este 14 Este 0 -- -- 77
2020-01-13 16:00:00 5.5 4 Sudeste 10 Nordeste 0 -- -- 77
2020-01-13 15:00:00 6 7 Este 13 Este 0 -- -- 70
2020-01-13 14:00:00 5.2 4 Este 8 Este 0 -- -- 75
2020-01-13 13:00:00 4 4 Oeste 8 Oeste 0 -- -- 78
2020-01-13 12:00:00 2.4 0 Calma 4 Este 0 -- -- 92
2020-01-13 11:00:00 0.2 0 Calma 3 Este 0 -- -- 98
2020-01-13 10:00:00 -1.1 0 Calma 3 Sudoeste 0 -- -- 98
2020-01-13 09:00:00 -2 0 Calma 3 Oeste 0 -- -- 97
2020-01-13 08:00:00 -1.9 0 Calma 3 Sudoeste 0 -- -- 96
2020-01-13 07:00:00 -1.7 0 Calma 5 Oeste 0 -- -- 96
2020-01-13 06:00:00 -1.5 0 Calma 3 Oeste 0 -- -- 95
2020-01-13 05:00:00 -1.4 0 Calma 4 Sudoeste 0 -- -- 95
2020-01-13 04:00:00 -0.9 2 Sudoeste 5 Sudoeste 0 -- -- 95
2020-01-13 03:00:00 -0.2 0 Calma 3 Oeste 0 -- -- 95
2020-01-13 02:00:00 0.2 3 Sudoeste 4 Sudoeste 0 -- -- 93
2020-01-13 01:00:00 0.8 0 Calma 4 Oeste 0 -- -- 92
2020-01-13 00:00:00 1.8 3 Oeste 5 Oeste 0 -- -- 90
2020-01-12 23:00:00 2.7 2 Oeste 3 Oeste 0 -- -- 86
2020-01-12 22:00:00 3.8 0 Calma 10 Oeste 0 -- -- 82
2020-01-12 21:00:00 5 0 Calma 10 Noroeste 0 -- -- 76
2020-01-12 20:00:00 6.4 3 Noroeste 13 Sudoeste 0 -- -- 70
2020-01-12 19:00:00 7.6 2 Noroeste 10 Sudoeste 0 -- -- 69
2020-01-12 18:00:00 9.5 8 Oeste 22 Oeste 0 -- -- 62
2020-01-12 17:00:00 11.6 10 Oeste 24 Sudoeste 0 -- -- 54
2020-01-12 16:00:00 11.2 15 Oeste 24 Oeste 0 -- -- 53
2020-01-12 15:00:00 10 15 Oeste 24 Oeste 0 -- -- 56
2020-01-12 14:00:00 7.6 11 Oeste 24 Oeste 0 -- -- 72
2020-01-12 13:00:00 5.9 14 Noroeste 24 Oeste 0 -- -- 74
2020-01-12 12:00:00 5.5 13 Oeste 27 Oeste 0 -- -- 74
2020-01-12 11:00:00 3.9 15 Oeste 25 Sudoeste 0 -- -- 81
2020-01-12 10:00:00 1.2 12 Oeste 26 Oeste 0 -- -- 89
2020-01-12 09:00:00 0.8 14 Oeste 23 Oeste 0 -- -- 92
2020-01-12 08:00:00 0.7 12 Oeste 21 Oeste 0 -- -- 91
2020-01-12 07:00:00 1.2 6 Oeste 19 Oeste 0 -- -- 88
2020-01-12 06:00:00 1.9 10 Oeste 22 Oeste 0 -- -- 88
2020-01-12 05:00:00 1.8 12 Oeste 20 Sudoeste 0 -- -- 84
2020-01-12 04:00:00 2.6 8 Oeste 24 Oeste 0 -- -- 81
2020-01-12 03:00:00 3.2 12 Oeste 28 Oeste 0 -- -- 83
2020-01-12 02:00:00 3.5 13 Oeste 28 Oeste 0 -- -- 77
2020-01-12 01:00:00 4.1 14 Oeste 26 Oeste 0 -- -- 78
2020-01-12 00:00:00 2.4 5 Oeste 17 Oeste 0 -- -- 81
2020-01-11 23:00:00 3.1 6 Oeste 14 Oeste 0 -- -- 82
2020-01-11 22:00:00 3.7 7 Oeste 18 Sudoeste 0 -- -- 81
2020-01-11 21:00:00 4.5 8 Oeste 15 Oeste 0 -- -- 83
2020-01-11 20:00:00 6.3 14 Sudoeste 22 Sudoeste 0 -- -- 77
2020-01-11 19:00:00 7 13 Sudoeste 19 Sudoeste 0 -- -- 78
2020-01-11 18:00:00 8.4 10 Sudoeste 15 Sudoeste 0 -- -- 74
2020-01-11 17:00:00 10.3 9 Oeste 22 Oeste 0 -- -- 66
2020-01-11 16:00:00 9.7 10 Oeste 19 Noroeste 0 -- -- 69
2020-01-11 15:00:00 8.7 9 Oeste 21 Oeste 0 -- -- 70
2020-01-11 14:00:00 8.2 11 Oeste 18 Oeste 0 -- -- 69
2020-01-11 13:00:00 8 9 Oeste 15 Oeste 0 -- -- 70
2020-01-11 12:00:00 7.2 7 Oeste 13 Noroeste 0 -- -- 73
2020-01-11 11:00:00 5.1 5 Oeste 10 Sudoeste 0 -- -- 81
2020-01-11 10:00:00 1.1 4 Oeste 13 Oeste 0 -- -- 94
2020-01-11 09:00:00 1.1 6 Oeste 11 Oeste 0 -- -- 94
2020-01-11 08:00:00 1.4 8 Oeste 17 Sudoeste 0 -- -- 95
2020-01-11 07:00:00 0.9 4 Noroeste 11 Noroeste 0 -- -- 96
2020-01-11 06:00:00 1.1 6 Oeste 12 Oeste 0 -- -- 95
2020-01-11 05:00:00 1.7 5 Oeste 9 Oeste 0 -- -- 94
2020-01-11 04:00:00 2.3 3 Oeste 8 Sudoeste 0 -- -- 92
2020-01-11 03:00:00 3.2 2 Oeste 11 Oeste 0 -- -- 92
2020-01-11 02:00:00 3.8 4 Oeste 18 Oeste 0 -- -- 91
2020-01-11 01:00:00 4.2 5 Oeste 10 Oeste 0 -- -- 91
2020-01-11 00:00:00 5 3 Sudoeste 15 Sudoeste 0 -- -- 88
2020-01-10 23:00:00 5.5 9 Sudoeste 17 Sudoeste 0 -- -- 87
2020-01-10 22:00:00 6 8 Sudoeste 13 Sudoeste 0 -- -- 83
2020-01-10 21:00:00 6.8 10 Oeste 23 Noroeste 0 -- -- 81
2020-01-10 20:00:00 6.8 9 Oeste 17 Noroeste 0 -- -- 81
2020-01-10 19:00:00 7.6 14 Oeste 24 Sudoeste 0 -- -- 74
2020-01-10 18:00:00 7.7 5 Oeste 21 Sudoeste 0 -- -- 77
2020-01-10 17:00:00 8.1 10 Oeste 24 Sudoeste 0 -- -- 79
2020-01-10 16:00:00 8.1 11 Sudoeste 22 Oeste 0 -- -- 81
2020-01-10 15:00:00 8 12 Oeste 30 Oeste 0 -- -- 82
2020-01-10 14:00:00 7.1 12 Oeste 27 Oeste 0 -- -- 86
2020-01-10 13:00:00 7.9 15 Oeste 24 Oeste 0 -- -- 77
2020-01-10 12:00:00 6.6 10 Oeste 21 Oeste 0 -- -- 85
2020-01-10 11:00:00 5.6 5 Oeste 15 Oeste 0 -- -- 90
2020-01-10 10:00:00 4.1 5 Oeste 10 Oeste 0 -- -- 92
2020-01-10 09:00:00 3.5 0 Calma 10 Oeste 0 -- -- 93
2020-01-10 08:00:00 4 2 Noroeste 14 Noroeste 0 -- -- 96
2020-01-10 07:00:00 4 3 Oeste 8 Oeste 0 -- -- 97
2020-01-10 06:00:00 4.1 5 Oeste 9 Noroeste 0 -- -- 98
2020-01-10 05:00:00 3.9 0 Calma 10 Sudoeste 0 -- -- 98
2020-01-10 04:00:00 3.8 2 Noroeste 11 Oeste 0 -- -- 98
2020-01-10 03:00:00 4.2 4 Noroeste 10 Norte 0 -- -- 98
2020-01-10 02:00:00 4.2 2 Oeste 9 Noroeste 0.4 -- -- 98
2020-01-10 01:00:00 4.3 2 Sudoeste 12 Sudoeste 1.2 -- -- 98
2020-01-10 00:00:00 4.1 2 Oeste 12 Noroeste 3.4 -- -- 97
2020-01-09 23:00:00 4.1 0 Calma 8 Sudoeste 0 -- -- 96
2020-01-09 22:00:00 3.8 2 Sur 8 Este 0 -- -- 97
2020-01-09 21:00:00 3.7 4 Este 10 Este 0 -- -- 96
2020-01-09 20:00:00 3.6 6 Nordeste 12 Este 0 -- -- 96
2020-01-09 19:00:00 3.8 4 Este 8 Este 0 -- -- 96
2020-01-09 18:00:00 3.8 2 Sudeste 15 Este 0 -- -- 95
2020-01-09 17:00:00 3.7 10 Este 23 Este 0 -- -- 95
2020-01-09 16:00:00 4 14 Este 24 Sudeste 0 -- -- 94
2020-01-09 15:00:00 4 12 Este 23 Sudeste 0 -- -- 93
2020-01-09 14:00:00 4 5 Este 15 Este 0 -- -- 94
2020-01-09 13:00:00 3.9 8 Este 16 Este 0 -- -- 96
2020-01-09 12:00:00 3.6 8 Este 15 Este 0 -- -- 98
2020-01-09 11:00:00 3.3 6 Este 14 Este 0 -- -- 98
2020-01-09 10:00:00 3 2 Este 7 Este 0 -- -- 98
2020-01-09 09:00:00 2.9 5 Este 13 Este 0 -- -- 97
2020-01-09 08:00:00 3.2 4 Este 9 Este 0 -- -- 97
2020-01-09 07:00:00 3.1 2 Este 9 Este 0 -- -- 97
2020-01-09 06:00:00 2.8 0 Calma 12 Este 0 -- -- 97
2020-01-09 05:00:00 2.7 7 Este 22 Este 0 -- -- 96
2020-01-09 04:00:00 2.8 9 Este 21 Este 0 -- -- 97
2020-01-09 03:00:00 2.8 8 Este 14 Este 0 -- -- 97
2020-01-09 02:00:00 2.8 7 Sudeste 15 Este 0 -- -- 98
2020-01-09 01:00:00 2.6 6 Sudeste 21 Este 0 -- -- 98
2020-01-09 00:00:00 2.6 13 Este 23 Este 0 -- -- 98
2020-01-08 23:00:00 2.9 10 Este 18 Sudeste 0 -- -- 97
2020-01-08 22:00:00 3.4 7 Este 17 Sudeste 0 -- -- 96
2020-01-08 21:00:00 3.7 10 Este 19 Este 0 -- -- 95
2020-01-08 20:00:00 4.5 8 Este 18 Este 0 -- -- 92
2020-01-08 19:00:00 6.2 5 Sudeste 17 Este 0 -- -- 86
2020-01-08 18:00:00 7.8 8 Este 22 Este 0 -- -- 79
2020-01-08 17:00:00 9.2 9 Este 21 Este 0 -- -- 75
2020-01-08 16:00:00 10.8 8 Este 25 Este 0 -- -- 70
2020-01-08 15:00:00 13.8 2 Nordeste 7 Nordeste 0 -- -- 68
2020-01-08 14:00:00 12.6 3 Noroeste 8 Oeste 0 -- -- 71
2020-01-08 13:00:00 11.3 5 Noroeste 9 Noroeste 0 -- -- 72
2020-01-08 12:00:00 9.7 4 Noroeste 11 Oeste 0 -- -- 73
2020-01-08 11:00:00 7.7 5 Oeste 10 Oeste 0 -- -- 77
2020-01-08 10:00:00 4.9 5 Noroeste 14 Noroeste 0 -- -- 83
2020-01-08 09:00:00 5 3 Noroeste 23 Oeste 0 -- -- 81
2020-01-08 08:00:00 4.9 8 Oeste 18 Sudoeste 0 -- -- 79
2020-01-08 07:00:00 4 6 Oeste 12 Oeste 0 -- -- 82
2020-01-08 06:00:00 3.8 3 Noroeste 12 Oeste 0 -- -- 83
2020-01-08 05:00:00 4 4 Oeste 13 Oeste 0 -- -- 82
2020-01-08 04:00:00 3.7 7 Oeste 11 Oeste 0 -- -- 84
2020-01-08 03:00:00 4 6 Oeste 12 Oeste 0 -- -- 82
2020-01-08 02:00:00 4.2 5 Oeste 9 Oeste 0 -- -- 86
2020-01-08 01:00:00 4.5 5 Oeste 10 Oeste 0 -- -- 86
2020-01-08 00:00:00 4.9 3 Oeste 10 Oeste 0 -- -- 84
2020-01-07 23:00:00 5.6 5 Oeste 9 Noroeste 0 -- -- 85
2020-01-07 22:00:00 6.6 9 Oeste 13 Oeste 0 -- -- 84
2020-01-07 21:00:00 6.9 3 Oeste 9 Oeste 0 -- -- 83
2020-01-07 20:00:00 8.4 4 Oeste 9 Oeste 0 -- -- 79
2020-01-07 19:00:00 9.3 4 Oeste 7 Oeste 0 -- -- 76
2020-01-07 18:00:00 11.1 4 Oeste 7 Oeste 0 -- -- 70
2020-01-07 17:00:00 13.4 5 Oeste 13 Oeste 0 -- -- 63
2020-01-07 16:00:00 12.8 6 Oeste 13 Oeste 0 -- -- 63
2020-01-07 15:00:00 11.7 7 Oeste 17 Sudoeste 0 -- -- 62
2020-01-07 14:00:00 9.9 10 Oeste 16 Oeste 0 -- -- 60
2020-01-07 13:00:00 8.4 9 Oeste 19 Oeste 0 -- -- 61
2020-01-07 12:00:00 6.1 6 Oeste 13 Oeste 0 -- -- 75
2020-01-07 11:00:00 3.4 5 Oeste 12 Oeste 0 -- -- 82
2020-01-07 10:00:00 0.9 6 Oeste 13 Oeste 0 -- -- 89
2020-01-07 09:00:00 1.7 6 Oeste 15 Sudoeste 0 -- -- 82
2020-01-07 08:00:00 1.3 5 Oeste 23 Oeste 0 -- -- 82
2020-01-07 07:00:00 0.4 7 Oeste 16 Oeste 0 -- -- 90
2020-01-07 06:00:00 1.1 9 Oeste 18 Sudoeste 0 -- -- 87
2020-01-07 05:00:00 1.1 4 Oeste 14 Oeste 0 -- -- 89
2020-01-07 04:00:00 2.3 4 Oeste 14 Oeste 0 -- -- 87
2020-01-07 03:00:00 1.4 5 Oeste 9 Oeste 0 -- -- 93
2020-01-07 02:00:00 1.3 7 Oeste 12 Oeste 0 -- -- 94
2020-01-07 01:00:00 1 4 Oeste 9 Oeste 0 -- -- 95
2020-01-07 00:00:00 1.1 0 Calma 7 Oeste 0 -- -- 94
2020-01-06 23:00:00 1.1 3 Oeste 5 Oeste 0 -- -- 93
2020-01-06 22:00:00 1.9 0 Calma 8 Oeste 0 -- -- 93
2020-01-06 21:00:00 2.3 3 Oeste 8 Oeste 0 -- -- 91
2020-01-06 20:00:00 3 0 Calma 5 Noroeste 0 -- -- 90
2020-01-06 19:00:00 4.1 2 Oeste 8 Sudoeste 0 -- -- 84
2020-01-06 18:00:00 5.9 0 Calma 8 Sudeste 0 -- -- 79
2020-01-06 17:00:00 7.8 5 Este 8 Sudeste 0 -- -- 71
2020-01-06 16:00:00 7.3 3 Este 8 Este 0 -- -- 70
2020-01-06 15:00:00 5.4 3 Nordeste 5 Este 0 -- -- 76
2020-01-06 14:00:00 2.8 0 Calma 5 Nordeste 0 -- -- 96
2020-01-06 13:00:00 1.3 3 Este 6 Este 0 -- -- 99
2020-01-06 12:00:00 0.1 0 Calma 5 Sudoeste 0 -- -- 99
2020-01-06 11:00:00 -0.3 0 Calma 5 Sudoeste 0 -- -- 99
2020-01-06 10:00:00 -0.7 2 Sudeste 5 Este 0 -- -- 98